Tropical Cyclones
[Index]
Main Index Home Page Stock Weather Photos Extreme Storms Discussion Storm News and Storm Chasing Reports Tropical Cyclones / Hurricanes / Typhoons Weather Data and Links Wild Fires / Bushfires Weather Observation Techniques Weather Picture Catalogue Tornado Pictures and Reports Stock Video Footage and DVDs for sale
Season 1976-1977 Tropical Cyclone MARION Track Map
Season 1976-1977 Summaries: [BoM-AU] [JTWC-AU] [JTWC-SIO] [JTWC-SPAC] [JTWC-SH]
<<- Previous TC | JTWC 1976-1977 Season | Next TC ->>

click for intensity scale information  Lat/long Grid: Show Hide

 Date Labels: Show Hide

Joint Typhoon Warning Centre Cyclone Data

Name: MARION
Number: 938 / 7707

11 Jan 1977 00:00 UTC to 21 Jan 1977 00:00 UTC

    date/time    lat    long     hPa   cat  kts
1977-01-11 00   12.2   167.2                  30          
1977-01-11 06   12.5   167.2                  30          
1977-01-11 12   13.0   167.2                  35          
1977-01-11 18   13.6   167.2                  35          
1977-01-12 00   14.2   167.2                  35          
1977-01-12 06   14.6   167.2                  35          
1977-01-12 12   15.0   167.2                  35          
1977-01-12 18   15.4   167.1            1     40          
1977-01-13 00   15.8   167.0            1     45          
1977-01-13 06   16.4   167.0            1     45          
1977-01-13 12   17.0   167.0            1     45          
1977-01-13 18   17.6   167.0            2     55          
1977-01-14 00   18.2   167.0            2     60          
1977-01-14 06   19.0   167.3            2     60          
1977-01-14 12   19.7   167.8            2     60          
1977-01-14 18   20.0   168.1            2     65          
1977-01-15 00   20.2   168.5            2     65          
1977-01-15 06   20.5   169.1            2     65          
1977-01-15 12   20.8   170.0            2     70          
1977-01-15 18   21.0   171.0            2     70          
1977-01-16 00   21.2   172.0            2     70          
1977-01-16 06   21.3   172.8            2     70          
1977-01-16 12   21.3   173.5            2     65          
1977-01-16 18   21.4   174.6            2     65          
1977-01-17 00   21.5   175.7            2     65          
1977-01-17 06   21.6   176.4            2     65          
1977-01-17 12   21.8   177.0            2     60          
1977-01-17 18   21.9   177.8            2     55          
1977-01-18 00   22.0   178.5            1     50          
1977-01-18 06   22.2   179.2            1     45          
1977-01-18 12   22.5   179.9            1     40          
1977-01-18 18   22.9   179.5W                 35          
1977-01-19 00   23.4   179.0W                 35          
1977-01-19 06   24.1   178.7W                 35          
1977-01-19 12   24.8   178.4W                 35          
1977-01-19 18   25.3   178.2W                 35          
1977-01-20 00   25.9   178.0W                 35          
1977-01-20 06   26.8   177.9W                 35          
1977-01-20 12   27.8   177.9W                 35          
1977-01-20 18   28.9   177.9W                 35          
1977-01-21 00   30.0   177.9W                 35          
Winds are 1-min average.

Tropical cyclone tracks developed by Michael Bath using data from the Joint Typhoon Warning Centre Best Tracks and Google Maps.


[Australian Severe Weather index] [Copyright Notice] [Email Contacts] [Search This Site] [Privacy Policy]
Document: tropical_cyclone_marion.htm Updated: 18 September 2016